createdAt,value
2018-09-25T00:01:07.483Z,5.54
2018-09-25T00:03:42.885Z,5.45
2018-09-25T00:06:17.467Z,5.49
2018-09-25T00:08:51.958Z,5.47
2018-09-25T00:11:27.641Z,5.48
2018-09-25T00:14:03.179Z,5.46
2018-09-25T00:16:37.921Z,5.42
2018-09-25T00:19:12.465Z,5.38
2018-09-25T00:21:47.452Z,5.33
2018-09-25T00:24:22.011Z,5.31
2018-09-25T00:26:58.041Z,5.33
2018-09-25T00:29:33.001Z,5.27
2018-09-25T00:32:07.895Z,5.22
2018-09-25T00:34:42.565Z,5.27
2018-09-25T00:37:17.162Z,5.26
2018-09-25T00:39:52.134Z,5.29
2018-09-25T00:42:26.709Z,5.25
2018-09-25T00:45:01.261Z,5.19
2018-09-25T00:47:36.258Z,5.13
2018-09-25T00:50:10.925Z,5.18
2018-09-25T00:52:45.885Z,5.23
2018-09-25T00:55:21.498Z,5.27
2018-09-25T00:57:56.607Z,5.31
2018-09-25T01:00:31.738Z,5.27
2018-09-25T01:03:06.309Z,5.21
2018-09-25T01:05:41.293Z,5.20
2018-09-25T01:08:15.777Z,5.20
2018-09-25T01:10:50.342Z,5.13
2018-09-25T01:13:24.825Z,5.06
2018-09-25T01:15:59.734Z,5.09
2018-09-25T01:18:34.460Z,5.11
2018-09-25T01:21:09.035Z,5.06
2018-09-25T01:23:43.961Z,5.04
2018-09-25T01:26:18.450Z,5.00
2018-09-25T01:28:52.930Z,4.97
2018-09-25T01:31:28.289Z,4.97
2018-09-25T01:34:02.849Z,4.92
2018-09-25T01:36:37.300Z,4.89
2018-09-25T01:39:13.549Z,4.85
2018-09-25T01:41:48.498Z,4.86
2018-09-25T01:44:23.041Z,4.83
2018-09-25T01:46:58.018Z,4.86
2018-09-25T01:49:33.381Z,4.87
2018-09-25T01:52:07.873Z,4.91
2018-09-25T01:54:43.025Z,4.93
2018-09-25T01:57:17.583Z,4.92
2018-09-25T01:59:52.302Z,4.84
2018-09-25T02:02:26.755Z,4.76
2018-09-25T02:05:02.210Z,4.70
2018-09-25T02:07:36.814Z,4.66
2018-09-25T02:10:11.372Z,4.57
2018-09-25T02:12:46.641Z,4.51
2018-09-25T02:15:21.206Z,4.46
2018-09-25T02:17:56.029Z,4.43
2018-09-25T02:20:30.580Z,4.42
2018-09-25T02:23:05.021Z,4.40
2018-09-25T02:25:39.601Z,4.38
2018-09-25T02:28:14.522Z,4.32
2018-09-25T02:30:48.999Z,4.29
2018-09-25T02:33:23.600Z,4.27
2018-09-25T02:35:58.862Z,4.22
2018-09-25T02:38:33.417Z,4.19
2018-09-25T02:41:08.610Z,4.20
2018-09-25T02:43:43.316Z,4.21
2018-09-25T02:46:17.969Z,4.15
2018-09-25T02:48:52.573Z,4.21
2018-09-25T02:51:27.517Z,4.26
2018-09-25T02:54:02.690Z,4.27
2018-09-25T02:56:37.241Z,4.28
2018-09-25T02:59:11.825Z,4.30
2018-09-25T03:01:46.906Z,4.30
2018-09-25T03:04:21.561Z,4.36
2018-09-25T03:06:56.194Z,4.34
2018-09-25T03:09:30.839Z,4.31
2018-09-25T03:12:05.754Z,4.25
2018-09-25T03:14:40.281Z,4.23
2018-09-25T03:17:14.734Z,4.21
2018-09-25T03:19:50.342Z,4.16
2018-09-25T03:22:24.761Z,4.12
2018-09-25T03:25:04.185Z,4.18
2018-09-25T03:27:39.855Z,4.18
2018-09-25T03:30:14.873Z,4.13
2018-09-25T03:35:53.714Z,4.14
2018-09-25T03:38:28.290Z,4.12
2018-09-25T03:41:04.225Z,4.14
2018-09-25T03:43:38.926Z,4.09
2018-09-25T03:46:13.721Z,4.04
2018-09-25T03:48:48.577Z,4.00
2018-09-25T03:51:53.847Z,3.96
2018-09-25T03:54:29.036Z,3.97
2018-09-25T03:57:03.621Z,4.01
2018-09-25T03:59:38.628Z,4.05
2018-09-25T04:02:13.100Z,4.16
2018-09-25T04:04:47.752Z,4.27
2018-09-25T04:07:22.394Z,4.35
2018-09-25T04:09:58.130Z,4.40
2018-09-25T04:12:33.686Z,4.39
2018-09-25T04:15:08.251Z,4.38
2018-09-25T04:17:42.788Z,4.42
2018-09-25T04:20:20.786Z,4.34
2018-09-25T04:22:55.444Z,4.42
2018-09-25T04:25:30.109Z,4.41
2018-09-25T04:28:04.977Z,4.45
2018-09-25T04:30:39.452Z,4.40
2018-09-25T04:33:14.025Z,4.42
2018-09-25T04:35:50.823Z,4.37
2018-09-25T04:38:26.816Z,4.39
2018-09-25T04:41:01.390Z,4.37
2018-09-25T04:43:35.933Z,4.35
2018-09-25T04:46:11.980Z,4.34
2018-09-25T04:48:47.706Z,4.35
2018-09-25T04:51:22.333Z,4.35
2018-09-25T04:53:56.954Z,4.30
2018-09-25T04:56:32.012Z,4.33
2018-09-25T04:59:06.524Z,4.39
2018-09-25T05:01:41.137Z,4.46
2018-09-25T05:04:17.256Z,4.50
2018-09-25T05:06:51.895Z,4.56
2018-09-25T05:09:26.966Z,4.64
2018-09-25T05:12:11.387Z,4.65
2018-09-25T05:15:02.258Z,4.67
2018-09-25T05:17:39.298Z,4.68
2018-09-25T05:20:14.561Z,4.68
2018-09-25T05:22:49.117Z,4.66
2018-09-25T05:25:25.073Z,4.62
2018-09-25T05:28:00.048Z,4.71
2018-09-25T05:30:34.575Z,4.76
2018-09-25T05:33:09.683Z,4.67
2018-09-25T05:35:44.926Z,4.71
2018-09-25T05:38:21.431Z,4.72
2018-09-25T05:40:57.056Z,4.70
2018-09-25T05:43:35.517Z,4.73
2018-09-25T05:46:11.535Z,4.70
2018-09-25T05:48:49.856Z,4.73
2018-09-25T05:51:24.570Z,4.78
2018-09-25T05:53:59.343Z,4.80
2018-09-25T05:56:33.965Z,4.86
2018-09-25T05:59:08.862Z,4.87
2018-09-25T06:01:43.345Z,4.92
2018-09-25T06:04:17.902Z,4.98
2018-09-25T06:06:52.947Z,5.06
2018-09-25T06:09:28.964Z,5.06
2018-09-25T06:12:04.066Z,5.02
2018-09-25T06:14:40.022Z,5.04
2018-09-25T06:17:15.128Z,5.07
2018-09-25T06:19:50.451Z,5.14
2018-09-25T06:22:24.995Z,5.20
2018-09-25T06:24:59.514Z,5.25
2018-09-25T06:27:34.660Z,5.24
2018-09-25T06:30:09.163Z,5.26
2018-09-25T06:32:43.641Z,5.30
2018-09-25T06:35:19.014Z,5.31
2018-09-25T06:37:53.978Z,5.35
2018-09-25T06:40:29.362Z,5.48
2018-09-25T06:43:05.451Z,5.57
2018-09-25T06:45:43.554Z,5.71
2018-09-25T06:48:18.060Z,5.73
2018-09-25T06:50:52.757Z,5.67
2018-09-25T06:53:28.249Z,5.74
2018-09-25T06:56:03.972Z,5.84
2018-09-25T06:58:38.557Z,5.98
2018-09-25T07:01:13.150Z,6.10
2018-09-25T07:03:48.489Z,6.13
2018-09-25T07:06:23.832Z,6.19
2018-09-25T07:08:58.446Z,6.15
2018-09-25T07:11:32.957Z,6.21
2018-09-25T07:14:07.553Z,6.22
2018-09-25T07:16:42.769Z,6.40
2018-09-25T07:19:17.353Z,6.50
2018-09-25T07:21:52.320Z,6.57
2018-09-25T07:24:26.949Z,6.59
2018-09-25T07:27:04.044Z,6.66
2018-09-25T07:29:38.506Z,6.76
2018-09-25T07:32:43.420Z,6.89
2018-09-25T07:35:25.668Z,7.02
2018-09-25T07:38:02.240Z,7.00
2018-09-25T07:40:36.982Z,6.99
2018-09-25T07:43:13.196Z,7.10
2018-09-25T07:45:47.878Z,7.15
2018-09-25T07:48:23.452Z,7.21
2018-09-25T07:50:58.652Z,7.15
2018-09-25T07:53:34.613Z,7.12
2018-09-25T07:56:10.145Z,7.25
2018-09-25T07:58:44.578Z,7.27
2018-09-25T08:01:20.569Z,7.27
2018-09-25T08:03:55.157Z,7.33
2018-09-25T08:06:35.157Z,7.27
2018-09-25T08:09:16.500Z,7.25
2018-09-25T08:11:53.474Z,7.33
2018-09-25T08:14:28.933Z,7.46
2018-09-25T08:17:03.385Z,7.63
2018-09-25T08:19:39.573Z,7.66
2018-09-25T08:22:15.297Z,7.61
2018-09-25T08:24:50.457Z,7.64
2018-09-25T08:27:25.580Z,7.63
2018-09-25T08:30:01.352Z,7.64
2018-09-25T08:32:36.445Z,7.66
2018-09-25T08:35:11.207Z,7.68
2018-09-25T08:37:47.036Z,7.60
2018-09-25T08:40:22.356Z,7.62
2018-09-25T08:42:57.413Z,7.59
2018-09-25T08:45:33.422Z,7.61
2018-09-25T08:48:09.133Z,7.63
2018-09-25T08:50:43.665Z,7.74
2018-09-25T08:53:18.290Z,7.81
2018-09-25T08:55:53.340Z,7.96
2018-09-25T08:58:30.213Z,8.00
2018-09-25T09:01:05.263Z,8.13
2018-09-25T09:03:39.885Z,8.24
2018-09-25T09:06:15.447Z,8.25
2018-09-25T09:08:50.345Z,8.16
2018-09-25T09:11:25.545Z,8.07
2018-09-25T09:14:01.842Z,7.98
2018-09-25T09:16:37.373Z,8.02
2018-09-25T09:19:13.447Z,8.14
2018-09-25T09:21:47.986Z,8.31
2018-09-25T09:24:24.065Z,8.32
2018-09-25T09:26:59.264Z,8.41
2018-09-25T09:29:35.234Z,8.50
2018-09-25T09:32:11.799Z,8.51
2018-09-25T09:34:46.345Z,8.51
2018-09-25T09:37:21.300Z,8.64
2018-09-25T09:39:56.283Z,8.72
2018-09-25T09:42:33.343Z,8.90
2018-09-25T09:45:09.397Z,9.07
2018-09-25T09:47:45.243Z,8.98
2018-09-25T09:50:20.454Z,8.96
2018-09-25T09:52:55.536Z,9.02
2018-09-25T09:55:33.430Z,9.11
2018-09-25T09:58:13.327Z,9.22
2018-09-25T10:00:48.960Z,9.37
2018-09-25T10:03:24.430Z,9.54
2018-09-25T10:06:01.102Z,9.47
2018-09-25T10:08:35.965Z,9.34
2018-09-25T10:11:11.126Z,9.24
2018-09-25T10:13:47.306Z,9.10
2018-09-25T10:16:21.853Z,8.94
2018-09-25T10:18:57.602Z,8.84
2018-09-25T10:21:34.031Z,8.77
2018-09-25T10:24:09.414Z,8.87
2018-09-25T10:26:44.581Z,9.07
2018-09-25T10:29:19.233Z,9.32
2018-09-25T10:31:53.832Z,9.54
2018-09-25T10:34:29.493Z,9.75
2018-09-25T10:37:05.085Z,9.95
2018-09-25T10:39:39.725Z,10.05
2018-09-25T10:42:16.212Z,9.94
2018-09-25T10:44:53.913Z,9.72
2018-09-25T10:47:29.421Z,9.48
2018-09-25T10:50:08.505Z,9.24
2018-09-25T10:52:43.458Z,9.40
2018-09-25T10:55:18.822Z,9.62
2018-09-25T10:57:54.192Z,9.96
2018-09-25T11:00:32.409Z,10.15
2018-09-25T11:03:09.337Z,10.13
2018-09-25T11:05:44.466Z,10.22
2018-09-25T11:08:19.474Z,10.10
2018-09-25T11:10:56.798Z,9.89
2018-09-25T11:13:32.821Z,9.65
2018-09-25T11:16:11.145Z,9.61
2018-09-25T11:18:48.463Z,9.68
2018-09-25T11:21:23.059Z,9.78
2018-09-25T11:24:00.087Z,9.78
2018-09-25T11:26:34.963Z,9.84
2018-09-25T11:29:09.625Z,10.05
2018-09-25T11:31:48.992Z,10.22
2018-09-25T11:34:24.858Z,10.40
2018-09-25T11:37:00.718Z,10.48
2018-09-25T11:39:36.301Z,10.64
2018-09-25T11:42:11.610Z,10.50
2018-09-25T11:44:47.377Z,10.35
2018-09-25T11:47:22.576Z,10.26
2018-09-25T11:49:57.467Z,10.17
2018-09-25T11:52:32.651Z,10.10
2018-09-25T11:55:07.435Z,9.91
2018-09-25T11:57:43.241Z,9.87
2018-09-25T12:00:24.468Z,9.77
2018-09-25T12:03:01.314Z,9.77
2018-09-25T12:05:36.589Z,9.89
2018-09-25T12:08:11.783Z,10.06
2018-09-25T12:10:48.527Z,10.21
2018-09-25T12:13:23.653Z,10.23
2018-09-25T12:15:58.722Z,10.36
2018-09-25T12:18:36.341Z,10.55
2018-09-25T12:21:13.517Z,10.81
2018-09-25T12:23:54.437Z,10.86
2018-09-25T12:26:29.122Z,10.86
2018-09-25T12:29:05.857Z,10.85
2018-09-25T12:31:40.528Z,10.71
2018-09-25T12:34:15.749Z,10.68
2018-09-25T12:36:50.926Z,10.61
2018-09-25T12:39:31.113Z,10.54
2018-09-25T12:42:07.937Z,10.48
2018-09-25T12:44:43.600Z,10.40
2018-09-25T12:47:18.354Z,10.51
2018-09-25T12:49:53.300Z,10.59
2018-09-25T12:52:27.873Z,10.73
2018-09-25T12:55:02.729Z,10.72
2018-09-25T12:57:38.183Z,10.66
2018-09-25T13:00:13.781Z,10.67
2018-09-25T13:02:50.782Z,10.64
2018-09-25T13:05:26.038Z,10.55
2018-09-25T13:08:01.105Z,10.53
2018-09-25T13:10:37.364Z,10.59
2018-09-25T13:13:13.334Z,10.61
2018-09-25T13:15:50.294Z,10.66
2018-09-25T13:18:25.207Z,10.78
2018-09-25T13:21:00.574Z,10.80
2018-09-25T13:23:36.001Z,10.64
2018-09-25T13:26:11.706Z,10.48
2018-09-25T13:29:06.779Z,10.35
2018-09-25T13:31:45.405Z,10.25
2018-09-25T13:34:21.435Z,10.14
2018-09-25T13:36:55.957Z,10.05
2018-09-25T13:39:34.339Z,9.95
2018-09-25T13:42:12.897Z,9.89
2018-09-25T13:44:48.328Z,9.84
2018-09-25T13:47:25.966Z,9.80
2018-09-25T13:50:06.403Z,9.76
2018-09-25T13:52:45.295Z,9.87
2018-09-25T13:55:23.226Z,10.01
2018-09-25T13:57:58.931Z,10.04
2018-09-25T14:00:33.907Z,10.01
2018-09-25T14:03:08.485Z,9.93
2018-09-25T14:05:46.223Z,9.92
2018-09-25T14:08:21.590Z,10.05
2018-09-25T14:11:00.942Z,10.24
2018-09-25T14:13:36.123Z,10.45
2018-09-25T14:16:11.115Z,10.57
2018-09-25T14:18:45.918Z,10.79
2018-09-25T14:21:21.091Z,11.00
2018-09-25T14:23:58.453Z,11.12
2018-09-25T14:26:33.860Z,11.30
2018-09-25T14:29:08.489Z,11.39
2018-09-25T14:31:43.345Z,11.50
2018-09-25T14:34:19.859Z,11.66
2018-09-25T14:36:57.526Z,11.66
2018-09-25T14:45:32.322Z,11.17
2018-09-25T14:48:11.618Z,10.95
2018-09-25T14:50:47.541Z,10.82
2018-09-25T14:53:22.457Z,10.66
2018-09-25T14:55:57.053Z,10.62
2018-09-25T14:58:33.908Z,10.56
2018-09-25T15:01:08.564Z,10.68
2018-09-25T15:03:43.726Z,10.84
2018-09-25T15:06:18.497Z,10.98
2018-09-25T15:08:52.981Z,11.12
2018-09-25T15:11:28.424Z,11.19
2018-09-25T15:14:03.035Z,11.25
2018-09-25T15:16:38.437Z,11.35
2018-09-25T15:19:14.073Z,11.38
2018-09-25T15:21:51.350Z,11.28
2018-09-25T15:24:27.640Z,11.27
2018-09-25T15:27:02.142Z,11.21
2018-09-25T15:29:37.126Z,11.14
2018-09-25T15:32:25.539Z,11.06
2018-09-25T15:35:03.196Z,10.93
2018-09-25T15:37:39.479Z,10.87
2018-09-25T15:40:15.285Z,10.79
2018-09-25T15:42:53.194Z,10.77
2018-09-25T15:45:28.171Z,10.65
2018-09-25T15:48:05.627Z,10.62
2018-09-25T15:50:41.223Z,10.48
2018-09-25T15:53:17.730Z,10.35
2018-09-25T15:55:54.054Z,10.30
2018-09-25T15:58:42.807Z,10.26
2018-09-25T16:04:01.207Z,10.11
2018-09-25T16:06:36.362Z,10.03
2018-09-25T16:09:14.494Z,9.94
2018-09-25T16:11:50.765Z,9.84
2018-09-25T16:14:27.161Z,9.78
2018-09-25T16:17:02.170Z,9.73
2018-09-25T16:19:37.145Z,9.60
2018-09-25T16:22:11.937Z,9.53
2018-09-25T16:24:46.898Z,9.44
2018-09-25T16:27:21.455Z,9.39
2018-09-25T16:29:56.002Z,9.29
2018-09-25T16:32:31.848Z,9.22
2018-09-25T16:35:09.547Z,9.08
2018-09-25T16:37:47.335Z,8.86
2018-09-25T16:40:21.853Z,8.71
2018-09-25T16:42:56.413Z,8.55
2018-09-25T16:45:34.296Z,8.43
2018-09-25T16:48:08.932Z,8.35
2018-09-25T16:50:44.949Z,8.25
2018-09-25T16:53:19.513Z,8.15
2018-09-25T16:55:55.397Z,7.99
2018-09-25T16:58:32.389Z,7.90
2018-09-25T17:01:06.966Z,7.77
2018-09-25T17:03:41.495Z,7.58
2018-09-25T17:06:16.383Z,7.46
2018-09-25T17:08:51.259Z,7.36
2018-09-25T17:11:28.073Z,7.16
2018-09-25T17:14:08.610Z,7.11
2018-09-25T17:16:44.402Z,6.94
2018-09-25T17:19:20.117Z,6.82
2018-09-25T17:22:00.181Z,6.78
2018-09-25T17:24:34.791Z,6.73
2018-09-25T17:27:12.032Z,6.70
2018-09-25T17:29:47.326Z,6.60
2018-09-25T17:32:23.609Z,6.54
2018-09-25T17:34:58.329Z,6.46
2018-09-25T17:37:34.297Z,6.40
2018-09-25T17:40:12.167Z,6.31
2018-09-25T17:42:47.884Z,6.27
2018-09-25T17:45:22.967Z,6.18
2018-09-25T17:47:58.357Z,6.13
2018-09-25T17:50:32.929Z,6.04
2018-09-25T17:53:08.558Z,5.99
2018-09-25T17:55:44.368Z,5.92
2018-09-25T17:58:23.415Z,5.83
2018-09-25T18:01:03.604Z,5.69
2018-09-25T18:03:38.794Z,5.76
2018-09-25T18:06:14.789Z,5.78
2018-09-25T18:08:51.539Z,5.69
2018-09-25T18:11:28.435Z,5.59
2018-09-25T18:14:03.552Z,5.58
2018-09-25T18:16:39.291Z,5.49
2018-09-25T18:19:17.129Z,5.47
2018-09-25T18:21:53.293Z,5.39
2018-09-25T18:24:29.419Z,5.28
2018-09-25T18:27:07.123Z,5.25
2018-09-25T18:29:43.200Z,5.26
2018-09-25T18:32:19.599Z,5.17
2018-09-25T18:34:56.872Z,5.07
2018-09-25T18:37:33.243Z,5.02
2018-09-25T18:40:09.143Z,4.97
2018-09-25T18:42:44.163Z,4.95
2018-09-25T18:45:21.405Z,4.91
2018-09-25T18:47:57.867Z,4.83
2018-09-25T18:50:33.403Z,4.79
2018-09-25T18:53:10.114Z,4.76
2018-09-25T18:55:45.812Z,4.71
2018-09-25T18:58:22.489Z,4.68
2018-09-25T19:00:58.548Z,4.63
2018-09-25T19:03:33.543Z,4.62
2018-09-25T19:06:09.398Z,4.63
2018-09-25T19:08:44.737Z,4.57
2018-09-25T19:11:22.033Z,4.56
2018-09-25T19:14:04.749Z,4.55
2018-09-25T19:16:40.565Z,4.52
2018-09-25T19:19:15.758Z,4.45
2018-09-25T19:21:52.533Z,4.42
2018-09-25T19:24:29.435Z,4.38
2018-09-25T19:27:04.525Z,4.44
2018-09-25T19:29:45.720Z,4.48
2018-09-25T19:32:21.598Z,4.46
2018-09-25T19:35:00.697Z,4.49
2018-09-25T19:37:35.762Z,4.44
2018-09-25T19:40:12.517Z,4.39
2018-09-25T19:42:48.008Z,4.40
2018-09-25T19:45:24.372Z,4.33
2018-09-25T19:47:59.666Z,4.28
2018-09-25T19:50:35.984Z,4.26
2018-09-25T19:53:11.413Z,4.19
2018-09-25T19:55:47.411Z,4.12
2018-09-25T19:58:28.645Z,4.09
2018-09-25T20:01:05.553Z,4.04
2018-09-25T20:03:40.460Z,3.99
2018-09-25T20:06:15.762Z,3.92
2018-09-25T20:08:52.581Z,3.90
2018-09-25T20:11:29.617Z,3.91
2018-09-25T20:14:05.501Z,3.87
2018-09-25T20:16:43.285Z,3.82
2018-09-25T20:21:59.905Z,3.74
2018-09-25T20:24:35.323Z,3.72
2018-09-25T20:27:11.472Z,3.73
2018-09-25T20:29:48.466Z,3.69
2018-09-25T20:32:23.924Z,3.68
2018-09-25T20:34:59.653Z,3.70
2018-09-25T20:37:37.274Z,3.67
2018-09-25T20:40:14.205Z,3.66
2018-09-25T20:42:51.444Z,3.67
2018-09-25T20:45:26.409Z,3.64
2018-09-25T20:48:01.419Z,3.64
2018-09-25T20:50:36.959Z,3.62
2018-09-25T20:53:12.571Z,3.55
2018-09-25T20:55:47.411Z,3.49
2018-09-25T20:58:22.430Z,3.46
2018-09-25T21:01:00.494Z,3.50
2018-09-25T21:03:35.497Z,3.45
2018-09-25T21:06:13.976Z,3.42
2018-09-25T21:08:49.533Z,3.39
2018-09-25T21:11:25.327Z,3.40
2018-09-25T21:14:00.828Z,3.41
2018-09-25T21:16:38.011Z,3.36
2018-09-25T21:19:14.454Z,3.34
2018-09-25T21:21:49.480Z,3.27
2018-09-25T21:24:24.587Z,3.23
2018-09-25T21:27:00.298Z,3.26
2018-09-25T21:29:37.203Z,3.25
2018-09-25T21:32:13.413Z,3.23
2018-09-25T21:34:48.193Z,3.21
2018-09-25T21:37:23.309Z,3.17
2018-09-25T21:39:57.989Z,3.08
2018-09-25T21:42:32.889Z,3.03
2018-09-25T21:45:07.647Z,3.02
2018-09-25T21:47:42.835Z,3.05
2018-09-25T21:50:34.466Z,3.04
2018-09-25T21:53:11.839Z,2.97
2018-09-25T21:55:49.344Z,2.88
2018-09-25T21:58:27.578Z,2.81
2018-09-25T22:01:06.118Z,2.82
2018-09-25T22:03:41.013Z,2.82
2018-09-25T22:06:15.597Z,2.77
2018-09-25T22:08:50.137Z,2.74
2018-09-25T22:11:26.828Z,2.71
2018-09-25T22:14:01.568Z,2.69
2018-09-25T22:16:37.036Z,2.68
2018-09-25T22:19:12.762Z,2.64
2018-09-25T22:21:47.389Z,2.63
2018-09-25T22:24:21.971Z,2.59
2018-09-25T22:26:56.898Z,2.59
2018-09-25T22:29:31.570Z,2.57
2018-09-25T22:32:06.203Z,2.51
2018-09-25T22:34:42.281Z,2.47
2018-09-25T22:37:16.869Z,2.47
2018-09-25T22:39:51.350Z,2.44
2018-09-25T22:42:25.935Z,2.42
2018-09-25T22:45:01.006Z,2.45
2018-09-25T22:47:35.579Z,2.44
2018-09-25T22:50:10.355Z,2.44
2018-09-25T22:52:45.258Z,2.43
2018-09-25T22:55:21.555Z,2.42
2018-09-25T22:57:56.099Z,2.39
2018-09-25T23:00:31.383Z,2.40
2018-09-25T23:03:06.086Z,2.41
2018-09-25T23:05:41.023Z,2.42
2018-09-25T23:08:15.659Z,2.42
2018-09-25T23:10:50.295Z,2.38
2018-09-25T23:13:25.292Z,2.35
2018-09-25T23:16:01.375Z,2.34
2018-09-25T23:18:36.975Z,2.31
2018-09-25T23:21:11.618Z,2.32
2018-09-25T23:23:46.486Z,2.29
2018-09-25T23:26:21.290Z,2.27
2018-09-25T23:28:55.882Z,2.32
2018-09-25T23:31:30.789Z,2.32
2018-09-25T23:34:05.249Z,2.33
2018-09-25T23:36:39.995Z,2.33
2018-09-25T23:39:15.569Z,2.28
2018-09-25T23:41:50.133Z,2.27
2018-09-25T23:44:24.099Z,2.19
2018-09-25T23:46:58.634Z,2.27
2018-09-25T23:49:38.976Z,2.31
2018-09-25T23:52:20.349Z,2.32
2018-09-25T23:54:55.319Z,2.28
2018-09-25T23:57:29.645Z,2.33
